Depue, IL (61322)

10:35 PM CDT on August 22, 2014 (GMT -0500)
Illinois Valley Regional-Duncan | Change Station
CLOSE
Current Station
Airport
Location: Peru,
Elevation: 653 ft
Nearby Weather Stations

Elev 653 ft 41.35 °N, 89.15 °W | Updated 20 minutes ago

Clear
Clear
77 °F
Feels Like 77 °F
N
5
Wind Variable Wind from South

Today
High -- | Low -- °F
--% Chance of Precip.
Yesterday
High -- | Low -- °F
Precip. -- in
6:13 AM 7:45 PM
Waning Crescent, 5% visible
Pressure 29.99 in
Visibility 10.0 miles
Clouds Clear
Dew Point 74 °F
Humidity 89%
Rainfall 0.96 in
Snow Depth Not available.
UV 0 out of 12
Pollen 7.10 out of 12
Air Quality Not available.
Flu Activity Not available.
METAR KVYS 230315Z AUTO 17004KT 10SM CLR 25/23 A2999 RMK AO2 T02500231

More Conditions Fewer Conditions

Pressure 29.99 in
Visibility 10.0 miles
Clouds Clear
Dew Point 74 °F
Humidity 89%
Rainfall 0.96 in
Snow Depth Not available.
UV 0 out of 12
Pollen 7.10 out of 12
Air Quality Not available.
Flu Activity Not available.
METAR KVYS 230315Z AUTO 17004KT 10SM CLR 25/23 A2999 RMK AO2 T02500231

More Conditions Fewer Conditions

10-Day Weather Forecast

Almanac

Astronomy

Aug. 22, 2014 Rise Set
Actual Time 6:13 AM CDT 7:45 PM CDT
Civil Twilight 5:44 AM CDT 8:14 PM CDT
Nautical Twilight 5:09 AM CDT 8:49 PM CDT
Astronomical Twilight 4:31 AM CDT 9:27 PM CDT
Moon 3:35 AM CDT (8/22) 5:54 PM CDT (8/22)
Length of Visible Light 14h 30m
Length of Day
13h 32m
Tomorrow will be 2m 32s shorter.
Waning Crescent, 5% of the Moon is Illuminated
Today
Waning Crescent
Aug 25
New
Sep 2
First Quarter
Sep 8
Full
Sep 15
Last Quarter

Today's Extremes

State Highs State Lows

Community

WunderPhotos

Upload Photos

1,746,352 photos uploaded!

WunderBlogs® & News

Nearby

Snow Depth

Station Depth Elevation
No new snow has been reported.

Earthquake Activity

City Distance Mag. Time & Date
No recent earthquake activity has been reported nearby.
Minimum magnitude displayed is 2.5.

Coastal Water Temperatures

Place Temperature
No Stations Reporting

Nearby Weather Stations